Key West, FL

04:07 EST le 24 novembre 2014 (GMT -0500)
Big Coppitt Key Gulfside | Change Station
CLOSE
Current Station
Stations météorologiques personnelles
Location: Key West, FL
Altitude: 31 ft
Stations météo à proximité

Alt. 31 ft 24.60 °N, 81.67 °W | Updated 13 minutes ago

Nuageux
Nuageux
76.6 ° F
Paraît 77 ° F
N
2.7
Vent Variable Vent de SSE

Aujourd'hui
Haut(e) -- | Bas -- ° F
--% Risque de précip.
Hier
Haut(e) -- | Bas -- ° F
Precip. -- pouce
6:48 AM 5:37 PM
Lune montante, 4% visible
Pression 29.93 pouce
Visibilité 10.0 Miles terrestres
Nuages Peu 1500 ft
indice de chaleur 77 ° F
Point de rosée 75 ° F
Humidité 96%
Précipitations 0.00 pouce
Profondeur de la couche neigeuse Non disponible.
UV 0 sur 12
Pollen 3.30 sur 12
Qualité de l'air Non disponible.
Flu Activity Non disponible.
METAR KNQX 240853Z AUTO 18005KT 10SM FEW015 24/24 A2993 RMK AO2 SLP134 T02390239 58001 TSNO $

More Conditions Fewer Conditions

Pression 29.93 pouce
Visibilité 10.0 Miles terrestres
Nuages Peu 1500 ft
indice de chaleur 77 ° F
Point de rosée 75 ° F
Humidité 96%
Précipitations 0.00 pouce
Profondeur de la couche neigeuse Non disponible.
UV 0 sur 12
Pollen 3.30 sur 12
Qualité de l'air Non disponible.
Flu Activity Non disponible.
METAR KNQX 240853Z AUTO 18005KT 10SM FEW015 24/24 A2993 RMK AO2 SLP134 T02390239 58001 TSNO $

More Conditions Fewer Conditions

10-Day Weather Forecast

Almanac

Astronomie

Nov. 24, 2014 Lever Coucher
Temps réel
Crépuscule civil
Crépuscule nautique
Crépuscule astronomique
Lune
Durée de lumière visible
Longueur du jour
Tomorrow will be .
, % of the Moon is Illuminated

Extrêmes aujourd'hui

State Highs State Lows

Community

WunderPhotos

Upload Photos

1,773,295 Photos téléchargées !

WunderBlogs® & News

Nearby

Qualité de l'air

  Qualité de l'air Indice de la qualité de l'air Polluant
Not available.

Épaisseur de neige

Station Depth Altitude

Activité sismique

Ville Distance Mag. Time & Date
Minimum magnitude displayed is 2.5.

Températures des eaux côtières

Lieu Température

Stations météo à proximité